Aviation Digital Data Service (ADDS)

Output produced by METARs form (2255 UTC 01 February 2023)
found at http://www.aviationweather.gov/metar/data/
 
KANB 011854Z 0119/0218 32005KT P6SM OVC010 
     FM020400 VRB03KT P6SM OVC009 
     FM020600 VRB03KT 6SM -RA BR OVC008 
     FM021000 VRB04KT 3SM RA BR OVC006 
     FM021400 04005KT 2SM RA BR OVC004